Time;durP1;ratioP1;P1;durP2;ratioP2;P2;SDS_P1;SDS_P2;PMS_P1;PMS_P2;Temp;Humidity;BMP_temperature;BMP_pressure;BME280_temperature;BME280_humidity;BME280_pressure;Samples;Min_cycle;Max_cycle;Signal;HPM_P1;HPM_P2
2022/02/21 00:01:53;;;;;;;1.90;1.60;;;10.60;99.90;;;;;;5009598;28;20063;-58
2022/02/21 00:04:19;;;;;;;2.13;1.73;;;10.60;99.90;;;;;;5013929;28;20030;-56
2022/02/21 00:06:44;;;;;;;1.63;1.52;;;10.60;99.90;;;;;;5012998;28;20393;-56
2022/02/21 00:09:11;;;;;;;4.00;1.90;;;10.70;99.90;;;;;;5013459;28;20026;-57
2022/02/21 00:11:37;;;;;;;1.50;1.40;;;10.60;99.90;;;;;;5013963;28;20018;-57
2022/02/21 00:14:03;;;;;;;2.88;1.70;;;10.70;99.90;;;;;;5014108;28;20048;-58
2022/02/21 00:16:29;;;;;;;2.08;1.58;;;10.70;99.90;;;;;;5014026;28;20128;-56
2022/02/21 00:18:55;;;;;;;1.70;1.38;;;10.70;99.90;;;;;;5015993;28;20525;-56
2022/02/21 00:21:21;;;;;;;5.13;1.70;;;10.70;99.90;;;;;;4993576;28;20033;-56
2022/02/21 00:23:46;;;;;;;3.40;2.08;;;10.70;99.90;;;;;;5013113;28;20034;-57
2022/02/21 00:26:12;;;;;;;4.13;1.77;;;10.70;99.90;;;;;;5016288;28;20105;-54
2022/02/21 00:28:38;;;;;;;2.50;1.85;;;10.70;99.90;;;;;;5016882;28;20034;-59
2022/02/21 00:31:03;;;;;;;2.22;1.50;;;10.70;99.90;;;;;;5019537;28;20040;-57
2022/02/21 00:33:29;;;;;;;1.80;1.45;;;10.70;99.90;;;;;;5016980;28;20125;-54
2022/02/21 00:35:54;;;;;;;1.85;1.58;;;10.70;99.90;;;;;;5016876;28;20046;-58
2022/02/21 00:38:21;;;;;;;4.45;1.75;;;10.70;99.90;;;;;;4995209;28;20064;-59
2022/02/21 00:40:47;;;;;;;1.80;1.42;;;10.70;99.90;;;;;;5016555;28;20034;-55
2022/02/21 00:43:13;;;;;;;3.20;1.98;;;10.70;99.90;;;;;;5015738;28;20049;-53
2022/02/21 00:45:38;;;;;;;3.67;1.90;;;10.70;99.90;;;;;;5014654;28;20054;-58
2022/02/21 00:48:04;;;;;;;2.33;1.50;;;10.70;99.90;;;;;;5018208;28;20034;-59
2022/02/21 00:50:30;;;;;;;2.67;1.70;;;10.70;99.90;;;;;;5018258;28;20048;-56
2022/02/21 00:52:55;;;;;;;3.47;1.73;;;10.70;99.90;;;;;;5018306;28;20038;-55
2022/02/21 00:55:21;;;;;;;2.78;1.73;;;10.70;99.90;;;;;;5019328;28;20033;-57
2022/02/21 00:57:46;;;;;;;4.22;1.88;;;10.70;99.90;;;;;;5019894;28;20045;-57
2022/02/21 01:00:12;;;;;;;3.70;1.90;;;10.70;99.90;;;;;;5020370;28;20030;-55
2022/02/21 01:02:38;;;;;;;4.75;2.53;;;10.70;99.90;;;;;;5003507;28;20029;-52
2022/02/21 01:05:04;;;;;;;2.83;1.60;;;10.70;99.90;;;;;;5035844;28;20392;-57
2022/02/21 01:07:30;;;;;;;2.70;1.67;;;10.70;99.90;;;;;;5024223;28;20033;-56
2022/02/21 01:09:55;;;;;;;2.00;1.63;;;10.70;99.90;;;;;;5031759;28;20495;-58
2022/02/21 01:12:21;;;;;;;1.83;1.58;;;10.70;99.90;;;;;;5002005;28;20494;-57
2022/02/21 01:14:47;;;;;;;2.17;1.40;;;10.70;99.90;;;;;;5029676;28;20045;-57
2022/02/21 01:17:13;;;;;;;1.50;1.30;;;10.70;99.90;;;;;;5025777;28;20045;-55
2022/02/21 01:19:38;;;;;;;2.53;1.60;;;10.70;99.90;;;;;;5022724;28;20029;-57
2022/02/21 01:22:05;;;;;;;2.38;1.40;;;10.70;99.90;;;;;;5032103;28;20030;-57
2022/02/21 01:24:31;;;;;;;3.03;1.40;;;10.70;99.90;;;;;;5020080;28;20201;-57
2022/02/21 01:26:56;;;;;;;2.15;1.65;;;10.70;99.90;;;;;;5031071;28;20725;-58
2022/02/21 01:29:22;;;;;;;2.53;1.40;;;10.70;99.90;;;;;;5007250;28;20030;-58
2022/02/21 01:31:47;;;;;;;2.80;1.50;;;10.70;99.90;;;;;;5030521;28;20033;-60
2022/02/21 01:34:14;;;;;;;2.45;1.40;;;10.70;99.90;;;;;;5019289;28;20152;-57
2022/02/21 01:36:43;;;;;;;2.92;1.45;;;10.60;99.90;;;;;;5021678;28;20032;-57
2022/02/21 01:39:08;;;;;;;1.35;1.25;;;10.60;99.90;;;;;;5008667;28;20052;-56
2022/02/21 01:41:35;;;;;;;1.90;1.25;;;10.60;99.90;;;;;;5020070;28;20108;-55
2022/02/21 01:44:09;;;;;;;1.17;1.00;;;10.50;99.90;;;;;;5034291;28;20034;-56
2022/02/21 01:46:36;;;;;;;4.47;1.67;;;10.60;99.90;;;;;;5019780;28;20079;-59
2022/02/21 01:49:02;;;;;;;1.77;1.45;;;10.50;99.90;;;;;;5027333;28;20489;-57
2022/02/21 01:51:28;;;;;;;1.73;1.55;;;10.50;99.90;;;;;;5027847;28;20040;-59
2022/02/21 01:53:55;;;;;;;1.45;1.35;;;10.50;99.90;;;;;;5001995;28;20037;-59
2022/02/21 01:56:22;;;;;;;2.63;1.50;;;10.50;99.90;;;;;;5032311;28;20041;-59
2022/02/21 01:58:47;;;;;;;2.53;1.38;;;10.50;99.90;;;;;;5021941;28;20477;-57
2022/02/21 02:01:13;;;;;;;1.85;1.40;;;10.50;99.90;;;;;;5008080;28;20038;-55
2022/02/21 02:03:39;;;;;;;1.50;1.40;;;10.50;99.90;;;;;;5027152;28;20034;-58
2022/02/21 02:06:06;;;;;;;1.20;1.10;;;10.50;99.90;;;;;;5018322;28;20493;-56
2022/02/21 02:08:33;;;;;;;1.40;1.30;;;10.50;99.90;;;;;;5030901;28;20044;-59
2022/02/21 02:10:59;;;;;;;2.15;1.38;;;10.50;99.90;;;;;;5023792;28;20168;-58
2022/02/21 02:13:24;;;;;;;1.88;1.40;;;10.50;99.90;;;;;;5023768;28;20033;-58
2022/02/21 02:15:54;;;;;;;2.78;1.52;;;10.50;99.90;;;;;;5029852;28;20029;-57
2022/02/21 02:18:21;;;;;;;2.70;1.45;;;10.30;99.90;;;;;;5017998;28;20799;-61
2022/02/21 02:20:47;;;;;;;3.80;1.83;;;10.10;99.90;;;;;;5028661;28;20026;-59
2022/02/21 02:23:12;;;;;;;7.00;2.30;;;10.00;99.90;;;;;;5022778;28;20141;-60
2022/02/21 02:25:39;;;;;;;7.30;2.65;;;9.70;99.90;;;;;;5021048;28;20481;-60
2022/02/21 02:28:05;;;;;;;4.05;1.73;;;9.00;99.90;;;;;;5013437;28;20032;-60
2022/02/21 02:30:31;;;;;;;3.97;1.80;;;8.30;99.90;;;;;;5001962;28;20469;-59
2022/02/21 02:32:57;;;;;;;3.15;1.45;;;8.10;99.90;;;;;;5027715;28;20401;-57
2022/02/21 02:35:23;;;;;;;2.80;1.88;;;7.80;99.90;;;;;;5018430;28;20038;-59
2022/02/21 02:37:49;;;;;;;5.35;1.48;;;7.80;99.90;;;;;;5029487;28;20124;-55
2022/02/21 02:40:15;;;;;;;5.45;1.98;;;7.80;99.90;;;;;;5017946;28;20072;-58
2022/02/21 02:42:41;;;;;;;3.65;1.50;;;7.70;99.90;;;;;;5009888;28;20030;-57
2022/02/21 02:45:08;;;;;;;2.70;1.38;;;7.80;99.90;;;;;;5026081;28;20022;-56
2022/02/21 02:47:33;;;;;;;1.60;1.38;;;7.80;99.90;;;;;;5024958;28;20087;-58
2022/02/21 02:49:59;;;;;;;2.78;1.33;;;7.80;99.90;;;;;;5000333;28;20444;-56
2022/02/21 02:52:24;;;;;;;0.90;0.88;;;7.90;99.90;;;;;;5030059;28;20127;-57
2022/02/21 02:54:50;;;;;;;2.08;1.50;;;8.00;99.90;;;;;;5014083;28;20481;-57
2022/02/21 02:57:15;;;;;;;2.20;1.13;;;8.00;99.90;;;;;;5024122;28;20029;-56
2022/02/21 02:59:41;;;;;;;1.88;1.10;;;8.00;99.90;;;;;;5021042;28;20064;-58
2022/02/21 03:02:07;;;;;;;2.53;1.27;;;7.90;99.90;;;;;;5012612;28;20033;-57
2022/02/21 03:04:32;;;;;;;2.63;2.10;;;8.00;99.90;;;;;;5018668;28;20030;-59
2022/02/21 03:07:00;;;;;;;1.27;1.02;;;7.90;99.90;;;;;;5008918;28;20038;-54
2022/02/21 03:09:26;;;;;;;1.10;1.00;;;7.90;99.90;;;;;;5025179;28;20025;-56
2022/02/21 03:11:52;;;;;;;1.75;1.20;;;7.90;99.90;;;;;;5018871;28;20417;-56
2022/02/21 03:14:19;;;;;;;1.90;1.10;;;7.80;99.90;;;;;;5029949;28;20071;-58
2022/02/21 03:16:45;;;;;;;1.10;0.95;;;7.80;99.90;;;;;;5019921;28;20117;-57
2022/02/21 03:19:10;;;;;;;1.05;0.93;;;7.80;99.90;;;;;;5024339;28;20781;-54
2022/02/21 03:21:36;;;;;;;4.68;1.27;;;7.80;99.90;;;;;;5026951;28;20120;-55
2022/02/21 03:24:02;;;;;;;2.05;1.08;;;7.80;99.90;;;;;;5017531;28;20050;-56
2022/02/21 03:26:27;;;;;;;0.85;0.85;;;7.80;99.90;;;;;;5001980;28;20041;-56
2022/02/21 03:28:53;;;;;;;0.98;0.98;;;7.80;99.90;;;;;;5027402;28;20033;-53
2022/02/21 03:31:19;;;;;;;1.30;1.20;;;7.70;99.90;;;;;;5025223;28;20064;-54
2022/02/21 03:33:45;;;;;;;1.30;1.02;;;7.80;99.90;;;;;;5020398;28;20092;-58
2022/02/21 03:36:11;;;;;;;2.05;1.30;;;7.70;99.90;;;;;;5018899;28;20092;-57
2022/02/21 03:38:37;;;;;;;1.90;1.33;;;7.70;99.90;;;;;;5015300;28;20512;-58
2022/02/21 03:41:02;;;;;;;1.05;0.88;;;7.80;99.90;;;;;;5017284;28;20527;-57
2022/02/21 03:43:28;;;;;;;1.40;1.30;;;7.70;99.90;;;;;;5029012;28;20492;-56
2022/02/21 03:45:53;;;;;;;1.88;1.10;;;7.60;99.90;;;;;;5018158;28;20489;-57
2022/02/21 03:48:19;;;;;;;3.38;1.70;;;7.70;99.90;;;;;;4998315;28;20038;-57
2022/02/21 03:50:45;;;;;;;3.90;1.40;;;7.70;99.90;;;;;;5027577;28;20038;-57
2022/02/21 03:53:10;;;;;;;1.55;1.35;;;7.70;99.90;;;;;;5022588;28;20408;-59
2022/02/21 03:55:36;;;;;;;1.25;1.15;;;7.70;99.90;;;;;;5020761;28;20113;-56
2022/02/21 03:58:02;;;;;;;3.67;1.80;;;7.60;99.90;;;;;;5028928;28;20163;-59
2022/02/21 04:00:27;;;;;;;2.10;1.50;;;7.60;99.90;;;;;;5016621;28;20552;-56
2022/02/21 04:02:53;;;;;;;3.50;1.42;;;7.50;99.90;;;;;;5026021;28;20490;-56
2022/02/21 04:05:19;;;;;;;1.67;1.58;;;7.50;99.90;;;;;;5005972;28;20041;-57
2022/02/21 04:07:45;;;;;;;1.77;1.23;;;7.50;99.90;;;;;;5033403;28;20099;-55
2022/02/21 04:10:12;;;;;;;2.97;1.73;;;7.40;99.90;;;;;;4999544;28;20061;-58
2022/02/21 04:12:38;;;;;;;1.70;1.60;;;7.50;99.90;;;;;;5010793;28;20573;-57
2022/02/21 04:15:05;;;;;;;2.55;1.75;;;7.50;99.90;;;;;;5021493;28;20076;-57
2022/02/21 04:17:43;;;;;;;3.20;1.70;;;7.50;99.90;;;;;;5021064;28;20034;-56
2022/02/21 04:20:11;;;;;;;2.20;1.70;;;7.60;99.90;;;;;;5029447;28;20029;-57
2022/02/21 04:22:37;;;;;;;2.58;1.60;;;7.50;99.90;;;;;;5000094;28;20095;-56
2022/02/21 04:25:04;;;;;;;3.40;1.70;;;7.40;99.90;;;;;;5024845;28;20050;-58
2022/02/21 04:27:37;;;;;;;1.80;1.63;;;7.40;99.90;;;;;;5024908;28;20092;-56
2022/02/21 04:30:03;;;;;;;3.80;1.90;;;7.40;99.90;;;;;;5015559;28;20525;-58
2022/02/21 04:32:29;;;;;;;3.75;1.77;;;7.30;99.90;;;;;;5028878;28;20030;-55
2022/02/21 04:34:56;;;;;;;3.63;2.10;;;7.20;99.90;;;;;;4998918;28;20049;-57
2022/02/21 04:37:21;;;;;;;4.35;1.95;;;7.10;99.90;;;;;;5019166;28;20045;-58
2022/02/21 04:39:47;;;;;;;2.33;1.80;;;7.10;99.90;;;;;;5027072;28;20164;-56
2022/02/21 04:42:13;;;;;;;5.07;1.88;;;7.00;99.90;;;;;;5018377;28;20057;-57
2022/02/21 04:44:38;;;;;;;3.03;2.50;;;6.90;99.90;;;;;;5027496;28;20038;-60
2022/02/21 04:47:04;;;;;;;7.82;2.92;;;6.80;99.90;;;;;;5004334;28;20033;-58
2022/02/21 04:49:30;;;;;;;5.68;2.10;;;6.80;99.90;;;;;;5020847;28;20038;-57
2022/02/21 04:51:57;;;;;;;5.50;2.40;;;6.80;99.90;;;;;;5028320;28;20095;-58
2022/02/21 04:54:23;;;;;;;5.13;2.42;;;6.80;99.90;;;;;;5017387;28;20083;-58
2022/02/21 04:56:49;;;;;;;4.65;2.20;;;6.70;99.90;;;;;;5026758;28;20042;-58
2022/02/21 04:59:14;;;;;;;6.72;2.97;;;6.70;99.90;;;;;;5023453;28;20122;-58
2022/02/21 05:01:40;;;;;;;9.07;2.67;;;6.60;99.90;;;;;;5019094;28;20046;-57
2022/02/21 05:04:06;;;;;;;7.00;2.30;;;6.40;99.90;;;;;;5027484;28;20029;-57
2022/02/21 05:06:31;;;;;;;5.53;2.20;;;6.40;99.90;;;;;;5017774;28;20026;-56
2022/02/21 05:08:58;;;;;;;7.63;2.63;;;6.30;99.90;;;;;;5027822;28;20118;-55
2022/02/21 05:11:24;;;;;;;6.38;2.78;;;6.40;99.90;;;;;;5029856;28;20069;-58
2022/02/21 05:13:49;;;;;;;5.00;2.25;;;6.40;99.90;;;;;;5025661;28;20034;-53
2022/02/21 05:16:15;;;;;;;6.68;2.60;;;6.40;99.90;;;;;;5039442;28;20158;-56
2022/02/21 05:18:41;;;;;;;6.97;2.63;;;6.30;99.90;;;;;;5004523;28;20108;-56
2022/02/21 05:21:06;;;;;;;5.60;2.72;;;6.20;99.90;;;;;;5028271;28;20045;-56
2022/02/21 05:23:32;;;;;;;7.03;2.72;;;6.10;99.90;;;;;;5028377;28;20041;-54
2022/02/21 05:25:57;;;;;;;7.07;2.53;;;5.90;99.90;;;;;;5020793;28;20030;-53
2022/02/21 05:28:23;;;;;;;6.60;2.60;;;6.00;99.90;;;;;;5030826;28;20038;-55
2022/02/21 05:30:48;;;;;;;5.72;2.70;;;6.00;99.90;;;;;;5005256;28;20358;-55
2022/02/21 05:33:15;;;;;;;6.38;2.55;;;6.00;99.90;;;;;;5008308;28;20100;-55
2022/02/21 05:35:41;;;;;;;8.00;2.70;;;5.90;99.90;;;;;;5017797;28;20052;-57
2022/02/21 05:38:07;;;;;;;7.47;2.72;;;5.90;99.90;;;;;;5017109;28;20037;-57
2022/02/21 05:40:32;;;;;;;9.77;2.63;;;5.90;99.90;;;;;;5002035;28;20048;-54
2022/02/21 05:42:58;;;;;;;6.82;2.65;;;5.90;99.90;;;;;;5026586;28;20049;-55
2022/02/21 05:45:24;;;;;;;6.75;2.95;;;5.90;99.90;;;;;;5006183;28;20530;-56
2022/02/21 05:47:49;;;;;;;7.28;2.97;;;5.80;99.90;;;;;;5013051;28;20390;-55
2022/02/21 05:50:15;;;;;;;6.13;2.47;;;5.70;99.90;;;;;;5018774;28;20118;-56
2022/02/21 05:52:40;;;;;;;6.57;3.15;;;5.70;99.90;;;;;;5029749;28;20061;-58
2022/02/21 05:55:06;;;;;;;6.10;2.80;;;5.70;99.90;;;;;;5022762;28;20508;-57
2022/02/21 05:57:32;;;;;;;5.95;2.55;;;5.70;99.90;;;;;;5022985;28;20504;-58
2022/02/21 05:59:59;;;;;;;9.63;2.70;;;5.70;99.90;;;;;;5029943;28;20113;-57
2022/02/21 06:02:24;;;;;;;4.88;2.33;;;5.50;99.90;;;;;;5015382;28;20048;-56
2022/02/21 06:04:50;;;;;;;6.38;2.53;;;5.50;99.90;;;;;;5017034;28;20569;-58
2022/02/21 06:07:17;;;;;;;9.00;2.53;;;5.50;99.90;;;;;;5019041;28;20104;-58
2022/02/21 06:09:44;;;;;;;8.05;2.53;;;5.50;99.90;;;;;;5029430;28;20120;-59
2022/02/21 06:12:11;;;;;;;5.25;2.03;;;5.40;99.90;;;;;;5018458;28;20394;-57
2022/02/21 06:14:37;;;;;;;5.00;2.33;;;5.30;99.90;;;;;;5031477;28;20445;-56
2022/02/21 06:17:03;;;;;;;6.30;2.30;;;5.40;99.90;;;;;;5024159;28;20025;-59
2022/02/21 06:19:28;;;;;;;5.50;2.08;;;5.20;99.90;;;;;;5023640;28;20034;-54
2022/02/21 06:21:55;;;;;;;4.90;2.10;;;5.20;99.90;;;;;;5030027;28;20055;-57
2022/02/21 06:24:21;;;;;;;4.50;2.20;;;5.10;99.90;;;;;;5015088;28;20443;-60
2022/02/21 06:26:47;;;;;;;5.80;1.90;;;5.00;99.90;;;;;;5015721;28;20125;-56
2022/02/21 06:29:12;;;;;;;7.00;2.10;;;4.90;99.90;;;;;;5017483;28;20386;-58
2022/02/21 06:31:38;;;;;;;6.00;2.53;;;4.80;99.90;;;;;;4999137;28;20046;-54
2022/02/21 06:34:05;;;;;;;4.15;2.17;;;4.70;99.90;;;;;;5015362;28;20037;-52
2022/02/21 06:36:31;;;;;;;4.07;2.08;;;4.70;99.90;;;;;;5023379;28;20409;-56
2022/02/21 06:38:57;;;;;;;6.53;2.85;;;4.60;99.90;;;;;;5016314;28;20042;-53
2022/02/21 06:41:23;;;;;;;6.75;2.50;;;4.50;99.90;;;;;;5015126;28;20026;-58
2022/02/21 06:43:49;;;;;;;7.90;2.40;;;4.50;99.90;;;;;;5009897;28;20034;-56
2022/02/21 06:46:14;;;;;;;6.15;2.83;;;4.50;99.90;;;;;;5016080;28;20371;-55
2022/02/21 06:48:40;;;;;;;6.15;2.40;;;4.50;99.90;;;;;;5014396;28;20490;-55
2022/02/21 06:51:05;;;;;;;8.05;2.70;;;4.50;99.90;;;;;;5015588;28;20371;-56
2022/02/21 06:53:31;;;;;;;7.22;2.50;;;4.50;99.90;;;;;;5018011;28;20079;-54
2022/02/21 06:55:57;;;;;;;7.18;2.33;;;4.40;99.90;;;;;;5003506;28;20052;-58
2022/02/21 06:58:22;;;;;;;6.85;2.33;;;4.50;99.90;;;;;;5013442;28;20029;-55
2022/02/21 07:00:48;;;;;;;6.93;2.55;;;4.50;99.90;;;;;;4998949;28;20052;-58
2022/02/21 07:03:13;;;;;;;5.70;2.25;;;4.50;99.90;;;;;;5014357;28;20034;-56
2022/02/21 07:05:39;;;;;;;9.57;2.55;;;4.50;99.90;;;;;;5014763;28;20057;-55
2022/02/21 07:08:06;;;;;;;8.95;2.92;;;4.50;99.90;;;;;;5014226;28;20030;-57
2022/02/21 07:10:32;;;;;;;5.85;2.40;;;4.60;99.90;;;;;;5014448;28;20489;-56
2022/02/21 07:12:57;;;;;;;9.38;3.17;;;4.60;99.90;;;;;;5013223;28;20032;-54
2022/02/21 07:15:23;;;;;;;7.88;3.10;;;4.60;99.90;;;;;;4994793;28;20069;-57
2022/02/21 07:17:49;;;;;;;11.55;2.75;;;4.60;99.90;;;;;;4994960;28;20034;-57
2022/02/21 07:20:15;;;;;;;7.05;2.60;;;4.70;99.90;;;;;;5014535;28;20037;-54
2022/02/21 07:22:42;;;;;;;7.47;3.08;;;4.80;99.90;;;;;;5014553;28;20038;-56
2022/02/21 07:25:10;;;;;;;9.05;2.75;;;4.90;99.90;;;;;;5014331;28;20025;-54
2022/02/21 07:27:46;;;;;;;7.95;3.08;;;4.90;99.90;;;;;;5014292;28;20040;-57
2022/02/21 07:30:14;;;;;;;10.57;3.33;;;5.00;99.90;;;;;;4996711;28;20453;-56
2022/02/21 07:32:41;;;;;;;10.57;3.00;;;5.10;99.90;;;;;;5013841;28;20034;-54
2022/02/21 07:35:07;;;;;;;11.23;3.20;;;5.00;99.90;;;;;;5013752;28;20161;-55
2022/02/21 07:37:33;;;;;;;9.68;3.25;;;5.10;99.90;;;;;;5013339;28;20037;-53
2022/02/21 07:39:58;;;;;;;10.27;3.53;;;5.10;99.90;;;;;;5013668;28;20042;-58
2022/02/21 07:42:27;;;;;;;12.27;4.05;;;5.10;99.90;;;;;;4996738;28;20034;-55
2022/02/21 07:44:53;;;;;;;9.80;2.92;;;5.10;99.90;;;;;;5027790;28;20038;-57
2022/02/21 07:47:19;;;;;;;8.23;3.00;;;5.10;99.90;;;;;;4996453;28;20025;-56
2022/02/21 07:49:45;;;;;;;6.75;2.88;;;5.10;99.90;;;;;;5013642;28;20507;-54
2022/02/21 07:52:11;;;;;;;8.10;3.25;;;5.20;99.60;;;;;;5013676;28;20091;-55
2022/02/21 07:54:37;;;;;;;10.23;3.13;;;5.20;99.40;;;;;;5013213;28;20034;-54
2022/02/21 07:57:05;;;;;;;6.70;2.80;;;5.30;99.20;;;;;;5013867;28;20042;-54
2022/02/21 07:59:31;;;;;;;8.48;3.30;;;5.40;99.00;;;;;;5014598;28;20041;-54
2022/02/21 08:01:56;;;;;;;11.07;3.50;;;5.50;98.60;;;;;;5014776;28;20030;-52
2022/02/21 08:04:22;;;;;;;10.63;3.25;;;5.50;98.80;;;;;;5013342;28;20478;-57
2022/02/21 08:06:47;;;;;;;9.85;2.75;;;5.60;99.10;;;;;;5012814;28;20022;-54
2022/02/21 08:09:13;;;;;;;12.57;3.10;;;5.50;99.50;;;;;;5013289;28;20639;-56
2022/02/21 08:11:39;;;;;;;7.43;2.80;;;5.60;99.90;;;;;;4995232;28;20524;-56
2022/02/21 08:14:05;;;;;;;7.35;2.83;;;5.60;99.90;;;;;;5013364;28;20155;-55
2022/02/21 08:16:31;;;;;;;9.13;2.60;;;5.50;99.80;;;;;;5013275;28;20065;-52
2022/02/21 08:18:57;;;;;;;7.97;2.55;;;5.60;99.20;;;;;;5013420;28;20025;-55
2022/02/21 08:21:22;;;;;;;5.47;2.33;;;5.50;99.40;;;;;;5012789;28;20041;-57
2022/02/21 08:23:48;;;;;;;4.03;2.00;;;5.40;98.90;;;;;;5013321;28;20057;-56
2022/02/21 08:26:14;;;;;;;6.43;2.13;;;5.30;99.30;;;;;;5013114;28;20069;-55
2022/02/21 08:28:41;;;;;;;6.57;2.45;;;5.20;99.90;;;;;;5011423;28;20030;-58
2022/02/21 08:31:07;;;;;;;4.28;1.88;;;5.10;99.90;;;;;;5011528;28;20042;-57
2022/02/21 08:33:33;;;;;;;6.10;2.17;;;5.00;99.90;;;;;;5012216;28;20030;-57
2022/02/21 08:35:59;;;;;;;6.00;2.20;;;5.10;99.90;;;;;;5012602;28;20065;-56
2022/02/21 08:38:24;;;;;;;4.82;2.00;;;5.20;99.90;;;;;;5012376;28;20038;-55
2022/02/21 08:40:50;;;;;;;7.05;2.20;;;4.90;99.90;;;;;;5012888;28;20029;-50
2022/02/21 08:43:16;;;;;;;7.38;2.35;;;4.90;99.90;;;;;;5012229;28;20394;-52
2022/02/21 08:45:44;;;;;;;5.03;2.60;;;4.90;99.90;;;;;;5013508;28;20034;-57
2022/02/21 08:48:10;;;;;;;7.28;2.42;;;4.90;99.90;;;;;;5015529;28;20113;-56
2022/02/21 08:50:35;;;;;;;7.30;2.33;;;5.00;99.90;;;;;;5015747;28;20164;-53
2022/02/21 08:53:01;;;;;;;7.25;2.67;;;4.90;99.90;;;;;;5017434;28;20030;-57
2022/02/21 08:55:27;;;;;;;5.95;2.40;;;4.90;99.90;;;;;;5017252;28;20041;-56
2022/02/21 08:57:52;;;;;;;4.88;3.03;;;4.80;99.90;;;;;;4999458;28;20029;-57
2022/02/21 09:00:18;;;;;;;8.85;2.80;;;4.80;99.90;;;;;;4999408;28;20022;-57
2022/02/21 09:02:45;;;;;;;7.10;2.20;;;4.70;99.90;;;;;;5016429;28;20473;-53
2022/02/21 09:05:12;;;;;;;8.48;2.38;;;4.90;99.90;;;;;;5019775;28;20038;-56
2022/02/21 09:07:38;;;;;;;6.38;2.17;;;4.90;99.90;;;;;;5003388;28;20486;-54
2022/02/21 09:10:04;;;;;;;5.65;2.08;;;4.90;99.90;;;;;;5017936;28;20108;-55
2022/02/21 09:12:31;;;;;;;8.02;2.60;;;5.00;99.90;;;;;;5017617;28;20084;-54
2022/02/21 09:15:00;;;;;;;6.50;2.50;;;5.00;99.90;;;;;;5019072;28;20026;-60
2022/02/21 09:17:25;;;;;;;3.95;1.85;;;4.90;99.90;;;;;;5016539;28;20034;-57
2022/02/21 09:19:51;;;;;;;8.70;2.42;;;4.90;99.90;;;;;;4999135;28;20050;-54
2022/02/21 09:22:17;;;;;;;6.85;2.78;;;4.80;99.90;;;;;;4998714;28;20490;-53
2022/02/21 09:24:43;;;;;;;5.47;1.98;;;4.90;99.90;;;;;;4982922;28;20125;-57
2022/02/21 09:27:08;;;;;;;4.50;1.90;;;5.10;99.90;;;;;;5016580;28;20045;-56
2022/02/21 09:29:35;;;;;;;4.82;2.10;;;5.20;99.90;;;;;;5016235;28;20033;-52
2022/02/21 09:32:01;;;;;;;4.78;2.22;;;5.20;99.90;;;;;;4998793;28;20041;-55
2022/02/21 09:34:26;;;;;;;4.00;1.85;;;5.20;99.90;;;;;;5016391;28;20041;-55
2022/02/21 09:36:52;;;;;;;5.20;2.13;;;5.20;99.90;;;;;;5016768;28;20661;-53
2022/02/21 09:39:18;;;;;;;4.82;2.00;;;5.30;99.90;;;;;;5015958;28;20049;-55
2022/02/21 09:41:43;;;;;;;6.30;2.05;;;5.50;99.90;;;;;;5015690;28;20034;-53
2022/02/21 09:44:10;;;;;;;4.95;2.00;;;5.60;99.90;;;;;;5031185;28;20095;-57
2022/02/21 09:46:38;;;;;;;6.65;3.00;;;5.70;99.90;;;;;;4998204;28;20030;-54
2022/02/21 09:49:07;;;;;;;6.90;2.78;;;5.80;99.90;;;;;;5015713;28;20512;-52
2022/02/21 09:51:33;;;;;;;3.60;2.08;;;6.00;99.90;;;;;;4998680;28;20564;-56
2022/02/21 09:53:59;;;;;;;6.60;2.08;;;6.10;99.90;;;;;;4998222;28;20042;-58
2022/02/21 09:56:24;;;;;;;5.45;2.35;;;6.20;99.90;;;;;;5015694;28;20033;-53
2022/02/21 09:58:54;;;;;;;4.45;2.10;;;6.00;99.90;;;;;;5015690;28;20041;-57
2022/02/21 10:01:23;;;;;;;7.38;2.72;;;6.00;99.90;;;;;;5015155;28;20405;-57
2022/02/21 10:03:57;;;;;;;7.88;2.30;;;6.10;99.90;;;;;;5001602;28;20042;-53
2022/02/21 10:06:29;;;;;;;8.85;2.80;;;6.00;99.00;;;;;;5021070;28;20022;-55
2022/02/21 10:09:03;;;;;;;6.65;2.40;;;6.10;98.50;;;;;;5022022;28;20037;-57
2022/02/21 10:11:30;;;;;;;4.93;2.60;;;6.30;98.40;;;;;;5020499;28;20445;-52
2022/02/21 10:13:58;;;;;;;6.75;2.63;;;6.50;97.70;;;;;;5016542;28;20129;-58
2022/02/21 10:16:25;;;;;;;6.95;2.45;;;6.40;97.70;;;;;;5016338;28;20060;-56
2022/02/21 10:19:28;;;;;;;12.00;2.70;;;6.40;97.50;;;;;;5015721;28;20030;-51
2022/02/21 10:22:02;;;;;;;8.20;2.55;;;6.40;96.80;;;;;;5016331;28;20041;-55
2022/02/21 10:24:30;;;;;;;9.00;2.67;;;6.50;96.30;;;;;;5016618;28;20040;-54
2022/02/21 10:27:04;;;;;;;3.83;2.03;;;6.50;95.50;;;;;;5015426;28;20062;-54
2022/02/21 10:29:37;;;;;;;4.97;2.43;;;6.60;94.30;;;;;;5015008;28;20018;-56
2022/02/21 10:32:10;;;;;;;5.32;1.90;;;6.80;94.70;;;;;;5015695;28;20033;-59
2022/02/21 10:34:36;;;;;;;8.63;3.22;;;6.90;94.00;;;;;;5015188;28;20048;-56
2022/02/21 10:37:05;;;;;;;6.13;2.70;;;6.90;94.70;;;;;;5015748;28;20425;-54
2022/02/21 10:39:32;;;;;;;11.93;3.10;;;6.80;94.50;;;;;;5015056;28;20033;-53
2022/02/21 10:41:58;;;;;;;4.18;2.17;;;6.80;94.90;;;;;;5013558;28;20040;-55
2022/02/21 10:44:35;;;;;;;4.72;2.15;;;6.70;95.00;;;;;;5029236;28;20026;-56
2022/02/21 10:47:04;;;;;;;5.75;2.38;;;6.60;94.20;;;;;;5014159;28;20026;-54
2022/02/21 10:49:34;;;;;;;6.68;2.85;;;6.70;94.40;;;;;;5014785;28;20034;-56
2022/02/21 10:52:03;;;;;;;9.30;2.85;;;6.80;93.60;;;;;;5014869;28;20033;-54
2022/02/21 10:54:29;;;;;;;4.65;2.03;;;6.70;93.70;;;;;;5014533;28;20045;-55
2022/02/21 10:56:55;;;;;;;5.13;2.22;;;6.60;92.50;;;;;;5014900;28;20041;-57
2022/02/21 10:59:21;;;;;;;4.35;1.88;;;6.50;93.00;;;;;;5015126;28;20038;-57
2022/02/21 11:01:48;;;;;;;5.50;1.92;;;6.50;92.90;;;;;;5014423;28;20026;-57
2022/02/21 11:04:14;;;;;;;7.68;2.67;;;6.60;92.90;;;;;;5014794;28;20223;-56
2022/02/21 11:06:40;;;;;;;5.88;2.30;;;6.60;93.80;;;;;;5014906;28;20066;-57
2022/02/21 11:09:08;;;;;;;6.25;2.40;;;6.60;93.50;;;;;;5013655;28;20034;-56
2022/02/21 11:11:37;;;;;;;6.90;2.92;;;6.40;93.20;;;;;;5013473;28;20124;-58
2022/02/21 11:14:04;;;;;;;6.63;2.60;;;6.60;94.80;;;;;;5013774;28;20094;-57
2022/02/21 11:16:34;;;;;;;3.47;1.77;;;6.70;95.50;;;;;;5014874;28;20478;-56
2022/02/21 11:19:00;;;;;;;7.03;2.00;;;6.70;94.60;;;;;;5012895;28;20046;-56
2022/02/21 11:21:26;;;;;;;6.75;2.22;;;6.70;93.40;;;;;;5013165;28;20034;-53
2022/02/21 11:23:52;;;;;;;5.18;2.33;;;6.70;93.30;;;;;;4996881;28;20038;-54
2022/02/21 11:26:24;;;;;;;7.63;2.53;;;6.70;92.90;;;;;;5014788;28;20204;-53
2022/02/21 11:28:59;;;;;;;5.78;2.70;;;6.80;93.00;;;;;;5012831;28;20030;-54
2022/02/21 11:31:29;;;;;;;;;;;6.80;92.80;;;;;;5014726;28;20045;-60
2022/02/21 11:34:05;;;;;;;8.13;2.60;;;6.80;93.30;;;;;;5014270;28;19928;-58
2022/02/21 11:36:33;;;;;;;11.27;2.60;;;6.80;92.20;;;;;;5012274;28;20119;-53
2022/02/21 11:38:59;;;;;;;8.38;2.90;;;6.80;92.60;;;;;;5013568;28;20040;-57
2022/02/21 11:41:34;;;;;;;7.30;2.42;;;6.70;93.10;;;;;;5012121;28;20111;-58
2022/02/21 11:44:17;;;;;;;;;;;6.60;92.60;;;;;;5029208;28;20037;-56
2022/02/21 11:46:43;;;;;;;7.05;2.63;;;6.60;92.80;;;;;;5014327;28;20003;-58
2022/02/21 11:49:08;;;;;;;8.30;3.08;;;6.60;93.30;;;;;;5014060;28;20058;-57
2022/02/21 11:51:40;;;;;;;9.48;2.90;;;6.70;93.70;;;;;;5013591;28;20042;-56
2022/02/21 11:54:09;;;;;;;7.93;2.83;;;6.80;94.10;;;;;;5013788;28;20042;-56
2022/02/21 11:56:53;;;;;;;8.52;3.20;;;6.70;93.80;;;;;;5014110;28;20033;-53
2022/02/21 11:59:21;;;;;;;9.23;2.85;;;6.60;94.10;;;;;;5014012;28;20551;-56
2022/02/21 12:02:06;;;;;;;7.32;3.20;;;6.70;94.00;;;;;;5012974;28;20449;-57
2022/02/21 12:04:52;;;;;;;7.80;2.65;;;6.80;94.00;;;;;;5011652;28;20127;-61
2022/02/21 12:07:24;;;;;;;10.25;2.95;;;6.90;93.30;;;;;;5013375;28;20030;-54
2022/02/21 12:10:14;;;;;;;8.27;3.10;;;7.00;93.60;;;;;;5013610;28;20137;-59
2022/02/21 12:12:59;;;;;;;8.35;3.28;;;7.10;93.60;;;;;;5013230;28;20034;-57
2022/02/21 12:15:29;;;;;;;8.30;3.40;;;7.20;93.30;;;;;;5013245;28;20026;-58
2022/02/21 12:18:04;;;;;;;6.80;2.40;;;7.20;92.60;;;;;;5013211;28;20113;-58
2022/02/21 12:20:32;;;;;;;7.45;3.22;;;7.30;92.60;;;;;;5013931;28;20061;-55
2022/02/21 12:23:16;;;;;;;9.75;3.25;;;7.20;92.40;;;;;;5011077;28;20037;-57
2022/02/21 12:26:02;;;;;;;5.55;2.75;;;7.30;92.90;;;;;;5011958;28;20029;-55
2022/02/21 12:28:37;;;;;;;11.18;3.35;;;7.10;92.80;;;;;;5011466;28;20022;-57
2022/02/21 12:31:03;;;;;;;9.32;2.95;;;7.00;93.40;;;;;;5011880;28;20508;-53
2022/02/21 12:33:31;;;;;;;7.93;3.00;;;6.90;93.20;;;;;;5012343;28;20037;-59
2022/02/21 12:35:57;;;;;;;8.60;3.00;;;6.90;92.90;;;;;;5013074;28;20188;-57
2022/02/21 12:38:25;;;;;;;8.40;2.75;;;6.90;93.30;;;;;;5012069;28;20064;-57
2022/02/21 12:41:04;;;;;;;14.95;3.28;;;6.80;93.60;;;;;;5010501;28;20025;-54
2022/02/21 12:43:44;;;;;;;9.90;2.92;;;6.80;93.90;;;;;;5013194;28;20065;-55
2022/02/21 12:46:10;;;;;;;5.65;2.90;;;6.90;93.50;;;;;;5013517;28;20034;-59
2022/02/21 12:48:36;;;;;;;5.25;3.13;;;6.90;93.50;;;;;;5012888;28;20061;-59
2022/02/21 12:51:01;;;;;;;9.20;3.30;;;6.80;93.20;;;;;;5012952;28;20437;-58
2022/02/21 12:53:27;;;;;;;8.75;3.00;;;6.90;92.30;;;;;;5012968;28;20036;-55
2022/02/21 12:55:58;;;;;;;6.40;2.40;;;6.90;92.40;;;;;;5012371;28;20451;-54